createdAt,value
2023-11-09T00:00:14.019Z,30.00
2023-11-09T00:02:42.133Z,29.90
2023-11-09T00:05:12.230Z,29.70
2023-11-09T00:07:40.493Z,29.80
2023-11-09T00:10:11.920Z,29.60
2023-11-09T00:12:41.643Z,29.70
2023-11-09T00:15:11.660Z,30.00
2023-11-09T00:17:40.079Z,30.30
2023-11-09T00:20:11.310Z,30.40
2023-11-09T00:22:40.255Z,30.80
2023-11-09T00:25:09.140Z,30.90
2023-11-09T00:27:39.038Z,31.10
2023-11-09T00:30:08.628Z,30.60
2023-11-09T00:32:38.734Z,30.60
2023-11-09T00:35:10.455Z,30.30
2023-11-09T00:37:39.560Z,30.10
2023-11-09T00:40:12.087Z,30.00
2023-11-09T00:42:40.641Z,30.00
2023-11-09T00:45:09.522Z,29.90
2023-11-09T00:47:39.080Z,29.90
2023-11-09T00:50:08.092Z,30.10
2023-11-09T00:52:36.237Z,30.40
2023-11-09T00:55:04.467Z,30.70
2023-11-09T00:57:33.672Z,30.40
2023-11-09T01:00:01.782Z,30.20
2023-11-09T01:02:36.454Z,30.20
2023-11-09T01:05:07.691Z,30.00
2023-11-09T01:07:35.921Z,30.00
2023-11-09T01:10:04.281Z,29.90
2023-11-09T01:12:32.450Z,29.80
2023-11-09T01:15:02.730Z,29.70
2023-11-09T01:17:30.962Z,30.00
2023-11-09T01:19:59.133Z,30.10
2023-11-09T01:22:28.620Z,30.50
2023-11-09T01:24:58.447Z,30.30
2023-11-09T01:27:27.600Z,30.20
2023-11-09T01:29:55.736Z,30.00
2023-11-09T01:32:23.815Z,30.00
2023-11-09T01:34:51.887Z,30.00
2023-11-09T01:37:20.197Z,29.90
2023-11-09T01:39:49.682Z,29.80
2023-11-09T01:42:18.655Z,29.70
2023-11-09T01:44:46.764Z,29.90
2023-11-09T01:47:15.755Z,30.00
2023-11-09T01:49:43.892Z,30.40
2023-11-09T01:52:12.012Z,30.30
2023-11-09T01:54:40.169Z,30.10
2023-11-09T01:57:11.460Z,30.00
2023-11-09T01:59:39.648Z,30.00
2023-11-09T02:02:07.844Z,29.90
2023-11-09T02:04:37.189Z,29.90
2023-11-09T02:07:05.801Z,29.90
2023-11-09T02:09:33.891Z,29.80
2023-11-09T02:12:02.053Z,29.70
2023-11-09T02:14:31.635Z,30.00
2023-11-09T02:16:59.732Z,30.30
2023-11-09T02:19:30.155Z,30.50
2023-11-09T02:21:58.556Z,30.80
2023-11-09T02:24:28.092Z,31.10
2023-11-09T02:29:26.439Z,30.30
2023-11-09T02:31:54.790Z,30.60
2023-11-09T02:34:25.492Z,30.30
2023-11-09T02:36:54.191Z,30.20
2023-11-09T02:39:22.457Z,30.00
2023-11-09T02:41:51.981Z,30.00
2023-11-09T02:44:20.132Z,29.90
2023-11-09T02:46:48.239Z,29.90
2023-11-09T02:49:16.429Z,30.50
2023-11-09T02:51:44.499Z,30.30
2023-11-09T02:54:13.347Z,30.70
2023-11-09T02:56:41.454Z,30.50
2023-11-09T02:59:10.988Z,30.30
2023-11-09T03:01:40.861Z,30.30
2023-11-09T03:04:09.553Z,30.00
2023-11-09T03:06:37.852Z,30.00
2023-11-09T03:09:08.940Z,29.90
2023-11-09T03:11:37.048Z,29.90
2023-11-09T03:14:06.775Z,29.80
2023-11-09T03:16:36.501Z,29.90
2023-11-09T03:19:05.137Z,30.20
2023-11-09T03:21:33.438Z,30.30
2023-11-09T03:24:01.596Z,30.40
2023-11-09T03:26:31.779Z,30.20
2023-11-09T03:29:00.066Z,30.10
2023-11-09T03:31:29.219Z,30.00
2023-11-09T03:33:58.884Z,30.00
2023-11-09T03:36:27.254Z,29.90
2023-11-09T03:38:55.420Z,29.80
2023-11-09T03:41:24.425Z,29.70
2023-11-09T03:43:53.164Z,29.70
2023-11-09T03:46:22.857Z,30.00
2023-11-09T03:48:51.281Z,30.30
2023-11-09T03:51:20.766Z,30.60
2023-11-09T03:53:48.985Z,30.20
2023-11-09T03:56:17.165Z,30.00
2023-11-09T03:58:47.033Z,30.00
2023-11-09T04:01:15.457Z,30.00
2023-11-09T04:03:43.966Z,29.90
2023-11-09T04:06:17.672Z,29.80
2023-11-09T04:08:47.438Z,29.80
2023-11-09T04:11:15.973Z,29.60
2023-11-09T04:13:44.112Z,29.90
2023-11-09T04:16:12.317Z,30.00
2023-11-09T04:18:40.542Z,30.40
2023-11-09T04:21:11.107Z,30.60
2023-11-09T04:23:40.407Z,30.90
2023-11-09T04:26:10.308Z,31.10
2023-11-09T04:28:38.680Z,30.90
2023-11-09T04:31:07.381Z,30.50
2023-11-09T04:33:36.698Z,30.30
2023-11-09T04:36:07.171Z,30.20
2023-11-09T04:38:38.648Z,30.10
2023-11-09T04:41:11.393Z,30.00
2023-11-09T04:43:40.292Z,30.00
2023-11-09T04:46:12.245Z,29.80
2023-11-09T04:48:45.972Z,30.00
2023-11-09T04:51:21.882Z,30.20
2023-11-09T04:53:52.595Z,30.60
2023-11-09T04:56:33.520Z,30.50
2023-11-09T04:59:03.742Z,30.30
2023-11-09T05:01:46.339Z,30.10
2023-11-09T05:04:32.276Z,30.00
2023-11-09T05:07:00.541Z,30.00
2023-11-09T05:09:29.084Z,29.90
2023-11-09T05:12:00.496Z,29.70
2023-11-09T05:14:28.739Z,29.70
2023-11-09T05:16:56.810Z,29.90
2023-11-09T05:19:24.969Z,30.20
2023-11-09T05:21:55.427Z,30.40
2023-11-09T05:24:23.766Z,30.40
2023-11-09T05:26:52.282Z,30.30
2023-11-09T05:29:22.154Z,30.00
2023-11-09T05:31:51.571Z,30.00
2023-11-09T05:34:19.673Z,29.90
2023-11-09T05:36:47.846Z,29.90
2023-11-09T05:39:16.171Z,29.80
2023-11-09T05:41:45.378Z,29.70
2023-11-09T05:44:13.707Z,29.80
2023-11-09T05:46:43.201Z,30.00
2023-11-09T05:49:11.756Z,30.30
2023-11-09T05:51:40.839Z,30.40
2023-11-09T05:54:09.821Z,30.10
2023-11-09T05:56:38.275Z,30.00
2023-11-09T05:59:06.895Z,30.00
2023-11-09T06:01:36.907Z,30.00
2023-11-09T06:04:06.728Z,29.90
2023-11-09T06:06:34.945Z,29.80
2023-11-09T06:09:16.546Z,30.10
2023-11-09T06:11:47.416Z,29.60
2023-11-09T06:14:18.171Z,30.00
2023-11-09T06:16:46.400Z,30.40
2023-11-09T06:19:16.177Z,30.50
2023-11-09T06:21:44.483Z,30.90
2023-11-09T06:24:12.971Z,31.10
2023-11-09T06:26:41.099Z,31.20
2023-11-09T06:29:09.927Z,30.80
2023-11-09T06:31:38.347Z,30.60
2023-11-09T06:34:15.417Z,30.30
2023-11-09T06:36:46.304Z,30.30
2023-11-09T06:39:17.505Z,30.00
2023-11-09T06:41:45.698Z,30.00
2023-11-09T06:44:14.253Z,29.90
2023-11-09T06:46:42.392Z,29.90
2023-11-09T06:49:10.748Z,30.20
2023-11-09T06:51:38.880Z,30.50
2023-11-09T06:54:09.028Z,30.70
2023-11-09T06:56:38.415Z,30.50
2023-11-09T06:59:06.617Z,30.30
2023-11-09T07:01:36.593Z,30.20
2023-11-09T07:04:05.623Z,30.00
2023-11-09T07:06:34.063Z,30.00
2023-11-09T07:09:02.297Z,29.90
2023-11-09T07:11:32.293Z,29.90
2023-11-09T07:14:02.520Z,29.80
2023-11-09T07:16:31.367Z,29.90
2023-11-09T07:18:59.969Z,30.30
2023-11-09T07:21:28.808Z,30.50
2023-11-09T07:24:00.831Z,30.50
2023-11-09T07:26:31.254Z,30.30
2023-11-09T07:29:00.938Z,30.10
2023-11-09T07:31:29.106Z,30.00
2023-11-09T07:33:57.400Z,29.90
2023-11-09T07:36:25.582Z,29.80
2023-11-09T07:38:56.625Z,29.80
2023-11-09T07:41:29.363Z,29.70
2023-11-09T07:43:57.461Z,29.90
2023-11-09T07:46:27.047Z,30.20
2023-11-09T07:48:58.761Z,30.40
2023-11-09T07:51:26.997Z,30.40
2023-11-09T07:53:55.541Z,30.20
2023-11-09T07:56:25.089Z,30.10
2023-11-09T07:58:53.205Z,30.00
2023-11-09T08:01:21.585Z,29.90
2023-11-09T08:03:52.527Z,29.90
2023-11-09T08:06:20.618Z,29.80
2023-11-09T08:08:49.346Z,29.60
2023-11-09T08:11:17.918Z,29.60
2023-11-09T08:13:46.120Z,30.00
2023-11-09T08:16:14.275Z,30.20
2023-11-09T08:18:42.738Z,30.50
2023-11-09T08:21:12.184Z,30.70
2023-11-09T08:23:40.420Z,30.90
2023-11-09T08:26:08.609Z,31.10
2023-11-09T08:28:36.839Z,30.70
2023-11-09T08:31:10.210Z,30.40
2023-11-09T08:33:38.581Z,30.20
2023-11-09T08:36:11.728Z,30.10
2023-11-09T08:38:41.470Z,30.00
2023-11-09T08:41:09.671Z,29.90
2023-11-09T08:43:37.838Z,29.80
2023-11-09T08:46:07.388Z,29.70
2023-11-09T08:48:37.418Z,30.00
2023-11-09T08:51:08.973Z,30.30
2023-11-09T08:53:37.693Z,30.50
2023-11-09T08:56:08.300Z,30.50
2023-11-09T08:58:38.288Z,30.20
2023-11-09T09:01:17.753Z,30.00
2023-11-09T09:03:47.209Z,29.90
2023-11-09T09:06:17.373Z,29.90
2023-11-09T09:08:47.799Z,29.70
2023-11-09T09:11:19.044Z,29.70
2023-11-09T09:13:47.278Z,29.70
2023-11-09T09:16:17.268Z,29.90
2023-11-09T09:18:47.712Z,30.10
2023-11-09T09:21:17.261Z,30.40
2023-11-09T09:23:45.723Z,30.20
2023-11-09T09:26:15.827Z,30.00
2023-11-09T09:28:50.153Z,30.00
2023-11-09T09:31:20.144Z,29.90
2023-11-09T09:33:49.833Z,29.80
2023-11-09T09:36:17.880Z,29.80
2023-11-09T09:38:46.116Z,29.60
2023-11-09T09:41:16.752Z,29.50
2023-11-09T09:43:46.962Z,29.70
2023-11-09T09:46:15.059Z,30.00
2023-11-09T09:48:46.165Z,30.10
2023-11-09T09:51:14.356Z,30.00
2023-11-09T09:53:42.467Z,30.00
2023-11-09T09:56:10.689Z,30.00
2023-11-09T09:58:39.014Z,29.90
2023-11-09T10:01:08.700Z,29.80
2023-11-09T10:03:38.344Z,29.70
2023-11-09T10:06:07.580Z,29.60
2023-11-09T10:08:37.299Z,29.60
2023-11-09T10:11:06.977Z,29.70
2023-11-09T10:13:37.089Z,30.40
2023-11-09T10:16:06.439Z,30.00
2023-11-09T10:18:36.199Z,30.40
2023-11-09T10:21:05.360Z,30.60
2023-11-09T10:23:33.712Z,30.70
2023-11-09T10:26:03.020Z,30.80
2023-11-09T10:28:34.008Z,30.50
2023-11-09T10:31:02.825Z,30.20
2023-11-09T10:33:32.506Z,30.10
2023-11-09T10:36:03.038Z,30.00
2023-11-09T10:38:32.679Z,30.00
2023-11-09T10:41:15.329Z,29.80
2023-11-09T10:43:51.271Z,29.70
2023-11-09T10:46:19.818Z,29.60
2023-11-09T10:48:50.011Z,29.90
2023-11-09T10:51:21.284Z,30.20
2023-11-09T10:53:50.170Z,30.50
2023-11-09T10:56:18.720Z,30.10
2023-11-09T10:58:47.488Z,30.10
2023-11-09T11:01:19.464Z,29.90
2023-11-09T11:03:52.714Z,29.90
2023-11-09T11:06:25.008Z,29.80
2023-11-09T11:08:56.243Z,29.80
2023-11-09T11:11:25.772Z,29.60
2023-11-09T11:13:58.881Z,29.60
2023-11-09T11:16:34.021Z,29.80
2023-11-09T11:19:20.966Z,30.10
2023-11-09T11:22:09.917Z,30.40
2023-11-09T11:25:15.826Z,30.10
2023-11-09T11:27:47.509Z,30.00
2023-11-09T11:30:26.105Z,29.90
2023-11-09T11:32:55.876Z,29.90
2023-11-09T11:35:35.811Z,29.70
2023-11-09T11:38:23.725Z,29.60
2023-11-09T11:40:53.365Z,29.60
2023-11-09T11:43:23.069Z,29.70
2023-11-09T11:45:51.552Z,29.90
2023-11-09T11:48:21.516Z,30.00
2023-11-09T11:50:51.242Z,30.20
2023-11-09T11:53:30.529Z,29.90
2023-11-09T11:56:02.269Z,30.00
2023-11-09T11:58:48.351Z,29.80
2023-11-09T12:01:31.533Z,29.80
2023-11-09T12:04:04.440Z,29.70
2023-11-09T12:06:34.691Z,29.50
2023-11-09T12:09:09.214Z,29.50
2023-11-09T12:11:44.977Z,29.60
2023-11-09T12:14:13.662Z,29.90
2023-11-09T12:16:42.178Z,30.00
2023-11-09T12:19:13.670Z,30.10
2023-11-09T12:21:42.479Z,30.50
2023-11-09T12:24:14.820Z,30.80
2023-11-09T12:26:43.943Z,30.90
2023-11-09T12:29:12.513Z,30.30
2023-11-09T12:31:41.448Z,30.10
2023-11-09T12:34:15.113Z,30.00
2023-11-09T12:36:47.797Z,30.00
2023-11-09T12:39:30.001Z,29.90
2023-11-09T12:41:58.527Z,29.80
2023-11-09T12:44:27.678Z,29.70
2023-11-09T12:46:57.512Z,29.80
2023-11-09T12:49:25.887Z,30.00
2023-11-09T12:51:54.829Z,30.10
2023-11-09T12:54:25.257Z,30.40
2023-11-09T12:56:57.735Z,30.10
2023-11-09T12:59:29.667Z,30.00
2023-11-09T13:01:58.225Z,29.90
2023-11-09T13:04:30.115Z,29.80
2023-11-09T13:06:58.408Z,29.70
2023-11-09T13:09:40.164Z,29.70
2023-11-09T13:12:26.655Z,29.60
2023-11-09T13:15:11.970Z,29.60
2023-11-09T13:17:51.610Z,29.90
2023-11-09T13:20:28.798Z,30.00
2023-11-09T13:23:05.752Z,30.30
2023-11-09T13:25:36.230Z,30.00
2023-11-09T13:28:07.758Z,30.00
2023-11-09T13:30:51.632Z,29.80
2023-11-09T13:33:31.573Z,29.70
2023-11-09T13:36:00.825Z,29.60
2023-11-09T13:38:44.376Z,29.50
2023-11-09T13:41:21.900Z,29.50
2023-11-09T13:44:01.273Z,29.70
2023-11-09T13:46:30.705Z,30.00
2023-11-09T13:49:12.003Z,30.00
2023-11-09T13:51:46.504Z,30.10
2023-11-09T13:54:26.347Z,29.90
2023-11-09T13:57:20.319Z,29.80
2023-11-09T13:59:56.146Z,29.70
2023-11-09T14:02:28.989Z,29.60
2023-11-09T14:05:08.615Z,29.50
2023-11-09T14:07:43.205Z,29.50
2023-11-09T14:10:15.611Z,29.40
2023-11-09T14:12:52.583Z,29.70
2023-11-09T14:15:27.017Z,30.00
2023-11-09T14:17:56.594Z,30.00
2023-11-09T14:20:35.130Z,30.40
2023-11-09T14:23:04.569Z,30.80
2023-11-09T14:25:33.669Z,31.00
2023-11-09T14:28:03.685Z,30.50
2023-11-09T14:30:33.612Z,30.20
2023-11-09T14:33:03.211Z,30.70
2023-11-09T14:35:33.079Z,30.00
2023-11-09T14:38:04.730Z,29.90
2023-11-09T14:40:35.567Z,29.80
2023-11-09T14:43:10.358Z,29.70
2023-11-09T14:45:43.007Z,29.60
2023-11-09T14:48:12.962Z,30.00
2023-11-09T14:50:41.455Z,30.10
2023-11-09T14:53:22.799Z,30.20
2023-11-09T14:55:58.276Z,30.10
2023-11-09T14:58:32.095Z,30.00
2023-11-09T15:01:01.946Z,29.90
2023-11-09T15:03:32.878Z,29.80
2023-11-09T15:06:10.400Z,29.70
2023-11-09T15:08:38.978Z,29.60
2023-11-09T15:11:11.595Z,29.60
2023-11-09T15:13:42.920Z,29.50
2023-11-09T15:16:15.692Z,29.80
2023-11-09T15:18:46.111Z,30.00
2023-11-09T15:21:15.641Z,30.00
2023-11-09T15:23:45.011Z,30.00
2023-11-09T15:26:13.850Z,30.00
2023-11-09T15:28:43.688Z,29.90
2023-11-09T15:31:12.089Z,29.80
2023-11-09T15:33:40.470Z,29.60
2023-11-09T15:36:09.226Z,29.60
2023-11-09T15:38:43.123Z,29.50
2023-11-09T15:41:21.963Z,29.40
2023-11-09T15:43:55.675Z,29.70
2023-11-09T15:46:24.489Z,30.00
2023-11-09T15:48:54.933Z,30.00
2023-11-09T15:51:32.160Z,30.00
2023-11-09T15:54:00.816Z,29.90
2023-11-09T15:56:29.170Z,29.80
2023-11-09T15:58:59.083Z,29.70
2023-11-09T16:01:27.675Z,29.70
2023-11-09T16:03:56.097Z,29.70
2023-11-09T16:06:24.660Z,29.50
2023-11-09T16:08:53.073Z,29.40
2023-11-09T16:11:22.356Z,29.60
2023-11-09T16:13:52.557Z,29.80
2023-11-09T16:16:22.863Z,30.00
2023-11-09T16:18:51.954Z,30.20
2023-11-09T16:21:20.440Z,30.30
2023-11-09T16:23:48.681Z,30.60
2023-11-09T16:26:19.329Z,30.70
2023-11-09T16:28:49.974Z,30.30
2023-11-09T16:31:18.715Z,30.10
2023-11-09T16:33:48.479Z,30.00
2023-11-09T16:36:16.958Z,30.00
2023-11-09T16:38:45.440Z,29.80
2023-11-09T16:41:13.879Z,29.70
2023-11-09T16:43:42.245Z,29.70
2023-11-09T16:46:11.560Z,29.60
2023-11-09T16:48:40.618Z,30.00
2023-11-09T16:51:11.730Z,30.00
2023-11-09T16:53:40.449Z,30.40
2023-11-09T16:56:10.119Z,30.10
2023-11-09T16:58:39.488Z,30.00
2023-11-09T17:01:08.759Z,29.90
2023-11-09T17:03:36.967Z,29.80
2023-11-09T17:06:07.263Z,29.80
2023-11-09T17:08:39.024Z,29.70
2023-11-09T17:11:09.105Z,29.60
2023-11-09T17:13:39.171Z,29.50
2023-11-09T17:16:08.991Z,29.90
2023-11-09T17:18:37.232Z,30.00
2023-11-09T17:21:06.109Z,30.20
2023-11-09T17:23:34.243Z,30.10
2023-11-09T17:26:06.584Z,30.00
2023-11-09T17:28:37.081Z,29.90
2023-11-09T17:31:06.994Z,29.80
2023-11-09T17:33:38.685Z,29.70
2023-11-09T17:36:09.158Z,29.70
2023-11-09T17:38:38.029Z,29.60
2023-11-09T17:41:10.831Z,29.50
2023-11-09T17:43:43.345Z,29.80
2023-11-09T17:46:12.014Z,29.90
2023-11-09T17:48:46.216Z,30.10
2023-11-09T17:51:15.543Z,30.20
2023-11-09T17:53:52.873Z,30.00
2023-11-09T17:56:25.527Z,29.90
2023-11-09T17:58:55.589Z,29.80
2023-11-09T18:01:23.874Z,29.60
2023-11-09T18:03:52.065Z,29.60
2023-11-09T18:06:25.978Z,29.60
2023-11-09T18:08:54.131Z,29.50
2023-11-09T18:11:37.962Z,29.80
2023-11-09T18:14:16.390Z,29.90
2023-11-09T18:16:45.246Z,30.10
2023-11-09T18:19:15.107Z,30.40
2023-11-09T18:21:44.424Z,30.50
2023-11-09T18:24:12.793Z,30.70
2023-11-09T18:26:46.262Z,30.60
2023-11-09T18:29:14.875Z,30.30
2023-11-09T18:31:43.670Z,30.10
2023-11-09T18:34:12.084Z,30.00
2023-11-09T18:36:40.287Z,30.00
2023-11-09T18:39:08.947Z,29.90
2023-11-09T18:41:37.048Z,29.80
2023-11-09T18:44:07.236Z,29.70
2023-11-09T18:46:36.350Z,29.80
2023-11-09T18:51:35.991Z,30.20
2023-11-09T18:54:04.398Z,30.30
2023-11-09T18:56:32.789Z,30.00
2023-11-09T18:59:01.025Z,30.00
2023-11-09T19:01:31.022Z,29.90
2023-11-09T19:06:32.892Z,29.70
2023-11-09T19:09:01.121Z,29.70
2023-11-09T19:11:30.732Z,29.50
2023-11-09T19:13:58.754Z,29.70
2023-11-09T19:16:26.911Z,29.90
2023-11-09T19:18:56.427Z,30.10
2023-11-09T19:23:55.905Z,30.00
2023-11-09T19:26:23.952Z,30.00
2023-11-09T19:28:52.013Z,29.90
2023-11-09T19:31:20.202Z,29.80
2023-11-09T19:33:48.361Z,29.70
2023-11-09T19:36:17.959Z,29.60
2023-11-09T19:38:46.039Z,29.60
2023-11-09T19:41:15.112Z,29.50
2023-11-09T19:43:43.198Z,29.90
2023-11-09T19:46:11.452Z,30.00
2023-11-09T19:48:43.775Z,30.10
2023-11-09T19:51:14.457Z,30.00
2023-11-09T19:53:45.029Z,30.00
2023-11-09T19:56:13.070Z,29.90
2023-11-09T19:58:41.158Z,29.80
2023-11-09T20:01:10.431Z,29.70
2023-11-09T20:03:38.684Z,30.10
2023-11-09T20:06:07.470Z,29.60
2023-11-09T20:08:35.550Z,29.50
2023-11-09T20:11:06.121Z,29.70
2023-11-09T20:13:35.229Z,30.00
2023-11-09T20:16:03.380Z,30.10
2023-11-09T20:18:31.501Z,30.30
2023-11-09T20:20:59.911Z,30.50
2023-11-09T20:23:28.158Z,30.70
2023-11-09T20:25:56.282Z,30.70
2023-11-09T20:28:26.037Z,30.40
2023-11-09T20:30:54.526Z,30.30
2023-11-09T20:33:22.670Z,30.00
2023-11-09T20:35:51.008Z,30.00
2023-11-09T20:38:19.950Z,29.90
2023-11-09T20:40:48.055Z,29.80
2023-11-09T20:43:16.098Z,29.80
2023-11-09T20:45:45.586Z,29.70
2023-11-09T20:48:13.751Z,30.00
2023-11-09T20:50:41.900Z,30.20
2023-11-09T20:53:10.010Z,30.30
2023-11-09T20:55:38.045Z,30.20
2023-11-09T20:58:06.369Z,30.00
2023-11-09T21:00:35.759Z,29.90
2023-11-09T21:03:06.184Z,29.90
2023-11-09T21:05:35.981Z,29.80
2023-11-09T21:08:04.188Z,29.70
2023-11-09T21:10:33.280Z,29.60
2023-11-09T21:13:02.034Z,29.60
2023-11-09T21:15:30.230Z,30.40
2023-11-09T21:17:59.957Z,30.00
2023-11-09T21:20:29.493Z,30.20
2023-11-09T21:22:58.591Z,30.10
2023-11-09T21:25:27.489Z,30.00
2023-11-09T21:27:55.845Z,29.90
2023-11-09T21:30:23.939Z,29.80
2023-11-09T21:32:52.150Z,29.70
2023-11-09T21:35:22.188Z,29.60
2023-11-09T21:37:51.650Z,29.60
2023-11-09T21:40:21.086Z,29.60
2023-11-09T21:42:51.253Z,29.80
2023-11-09T21:45:19.612Z,30.00
2023-11-09T21:47:48.518Z,30.20
2023-11-09T21:50:16.814Z,30.10
2023-11-09T21:52:46.033Z,30.00
2023-11-09T21:55:20.577Z,29.90
2023-11-09T21:57:48.720Z,29.90
2023-11-09T22:00:19.153Z,29.70
2023-11-09T22:02:48.215Z,29.70
2023-11-09T22:05:16.867Z,29.60
2023-11-09T22:07:44.897Z,29.50
2023-11-09T22:10:14.210Z,29.70
2023-11-09T22:12:44.287Z,29.90
2023-11-09T22:15:14.179Z,30.20
2023-11-09T22:17:42.411Z,30.30
2023-11-09T22:20:12.855Z,30.50
2023-11-09T22:22:41.053Z,30.80
2023-11-09T22:25:09.775Z,30.70
2023-11-09T22:27:37.877Z,30.50
2023-11-09T22:30:08.732Z,30.30
2023-11-09T22:32:36.962Z,30.20
2023-11-09T22:35:05.628Z,30.00
2023-11-09T22:37:34.105Z,30.00
2023-11-09T22:40:05.249Z,29.90
2023-11-09T22:42:34.632Z,29.70
2023-11-09T22:45:03.014Z,29.70
2023-11-09T22:47:32.690Z,30.00
2023-11-09T22:50:00.789Z,30.30
2023-11-09T22:52:28.985Z,30.40
2023-11-09T22:54:57.671Z,30.10
2023-11-09T22:57:26.226Z,30.10
2023-11-09T22:59:54.552Z,30.00
2023-11-09T23:02:23.827Z,29.90
2023-11-09T23:04:53.345Z,29.80
2023-11-09T23:07:21.531Z,29.70
2023-11-09T23:09:50.294Z,30.00
2023-11-09T23:12:18.456Z,29.60
2023-11-09T23:14:46.696Z,29.90
2023-11-09T23:17:14.830Z,30.00
2023-11-09T23:19:46.559Z,30.10
2023-11-09T23:22:19.565Z,30.10
2023-11-09T23:24:48.166Z,30.10
2023-11-09T23:27:16.445Z,30.00
2023-11-09T23:29:44.709Z,29.90
2023-11-09T23:32:12.774Z,29.80
2023-11-09T23:34:41.601Z,29.70
2023-11-09T23:37:09.712Z,29.70
2023-11-09T23:39:39.260Z,29.50
2023-11-09T23:42:07.780Z,29.70
2023-11-09T23:44:35.902Z,30.00
2023-11-09T23:47:03.975Z,30.00
2023-11-09T23:49:32.083Z,30.20
2023-11-09T23:52:02.831Z,30.00
2023-11-09T23:54:30.270Z,29.90
2023-11-09T23:56:59.747Z,29.90
2023-11-09T23:59:28.010Z,29.80
